Time;durP1;ratioP1;P1;durP2;ratioP2;P2;SDS_P1;SDS_P2;PMS_P1;PMS_P2;Temp;Humidity;BMP_temperature;BMP_pressure;BME280_temperature;BME280_humidity;BME280_pressure;Samples;Min_cycle;Max_cycle;Signal;HPM_P1;HPM_P2
2021/08/11 00:01:34;;;;;;;203.60;80.97;;;;;;;;;;5096886;28;20517;-58
2021/08/11 00:04:03;;;;;;;196.53;75.37;;;;;;;;;;5096919;28;20499;-52
2021/08/11 00:06:30;;;;;;;199.70;99.07;;;;;;;;;;5096374;28;20437;-57
2021/08/11 00:09:16;;;;;;;627.27;329.13;;;;;;;;;;5097466;28;20534;-54
2021/08/11 00:11:43;;;;;;;477.30;212.50;;;;;;;;;;5096800;28;20455;-54
2021/08/11 00:14:10;;;;;;;538.53;279.10;;;;;;;;;;5096600;28;20490;-57
2021/08/11 00:16:43;;;;;;;837.47;464.70;;;;;;;;;;5095279;28;20456;-55
2021/08/11 00:19:11;;;;;;;857.60;479.50;;;;;;;;;;5107405;28;20540;-53
2021/08/11 00:21:39;;;;;;;613.13;345.30;;;;;;;;;;5116152;28;20439;-54
2021/08/11 00:24:11;;;;;;;128.80;62.07;;;;;;;;;;5116382;28;20450;-59
2021/08/11 00:26:39;;;;;;;494.17;242.50;;;;;;;;;;5116222;28;20459;-58
2021/08/11 00:29:06;;;;;;;614.33;367.90;;;;;;;;;;5116621;28;20508;-56
2021/08/11 00:31:44;;;;;;;698.20;436.43;;;;;;;;;;5119745;28;20443;-54
2021/08/11 00:34:13;;;;;;;253.77;117.67;;;;;;;;;;5137649;28;20478;-52
2021/08/11 00:36:40;;;;;;;458.87;228.23;;;;;;;;;;5133015;28;20446;-50
2021/08/11 00:39:16;;;;;;;232.97;114.43;;;;;;;;;;5116415;28;20473;-56
2021/08/11 00:41:45;;;;;;;562.33;314.47;;;;;;;;;;5116064;28;20488;-59
2021/08/11 00:44:12;;;;;;;675.17;426.50;;;;;;;;;;5116480;28;20455;-55
2021/08/11 00:46:59;;;;;;;619.93;391.83;;;;;;;;;;5115843;28;20454;-52
2021/08/11 00:49:28;;;;;;;676.87;405.73;;;;;;;;;;5115823;28;20500;-53
2021/08/11 00:51:55;;;;;;;750.27;412.10;;;;;;;;;;5115861;28;20537;-54
2021/08/11 00:54:29;;;;;;;291.33;131.47;;;;;;;;;;5115589;28;20861;-53
2021/08/11 00:56:56;;;;;;;230.93;112.87;;;;;;;;;;5116070;28;20529;-53
2021/08/11 00:59:25;;;;;;;594.97;287.00;;;;;;;;;;5115862;28;20522;-53
2021/08/11 01:01:59;;;;;;;404.27;152.63;;;;;;;;;;5115273;28;20485;-56
2021/08/11 01:04:28;;;;;;;446.73;172.27;;;;;;;;;;5115729;28;20442;-54
2021/08/11 01:06:56;;;;;;;450.40;147.93;;;;;;;;;;5115800;28;20458;-53
2021/08/11 01:09:26;;;;;;;291.13;95.43;;;;;;;;;;5116038;28;20519;-55
2021/08/11 01:11:54;;;;;;;468.40;185.03;;;;;;;;;;5096225;28;20459;-54
2021/08/11 01:14:22;;;;;;;225.77;95.27;;;;;;;;;;5096053;28;20423;-50
2021/08/11 01:16:53;;;;;;;273.07;104.33;;;;;;;;;;5095541;28;20486;-59
2021/08/11 01:19:20;;;;;;;202.57;80.70;;;;;;;;;;5095320;28;20513;-58
2021/08/11 01:21:51;;;;;;;172.13;63.87;;;;;;;;;;5095613;28;20613;-58
2021/08/11 01:24:36;;;;;;;113.27;47.90;;;;;;;;;;5094812;28;20462;-55
2021/08/11 01:27:20;;;;;;;263.03;115.37;;;;;;;;;;5094858;28;20473;-53
2021/08/11 01:29:59;;;;;;;195.73;82.07;;;;;;;;;;5099011;28;20471;-58
2021/08/11 01:32:40;;;;;;;145.27;56.23;;;;;;;;;;5099572;28;20783;-53
2021/08/11 01:35:11;;;;;;;118.90;42.40;;;;;;;;;;5099947;28;20451;-58
2021/08/11 01:37:40;;;;;;;99.20;40.17;;;;;;;;;;5099934;28;20456;-55
2021/08/11 01:40:10;;;;;;;93.87;36.30;;;;;;;;;;5099827;28;20469;-57
2021/08/11 01:42:38;;;;;;;88.30;34.00;;;;;;;;;;5099851;28;20459;-57
2021/08/11 01:45:12;;;;;;;85.57;32.93;;;;;;;;;;5099339;28;20476;-58
2021/08/11 01:47:43;;;;;;;85.63;32.73;;;;;;;;;;5099736;28;20451;-60
2021/08/11 01:50:14;;;;;;;86.53;33.80;;;;;;;;;;5099555;28;20514;-53
2021/08/11 01:52:52;;;;;;;86.17;35.77;;;;;;;;;;5099291;28;20492;-55
2021/08/11 01:55:19;;;;;;;84.50;32.50;;;;;;;;;;5099003;28;20464;-58
2021/08/11 01:57:48;;;;;;;88.33;33.80;;;;;;;;;;5098621;28;20498;-54
2021/08/11 02:00:35;;;;;;;88.73;33.43;;;;;;;;;;5098803;28;20467;-54
2021/08/11 02:03:04;;;;;;;84.10;33.00;;;;;;;;;;5096841;28;20608;-57
2021/08/11 02:05:33;;;;;;;88.63;31.40;;;;;;;;;;5098388;28;20481;-51
2021/08/11 02:08:25;;;;;;;70.23;31.73;;;;;;;;;;5098627;28;20470;-50
2021/08/11 02:10:54;;;;;;;84.13;31.00;;;;;;;;;;5098745;28;20482;-56
2021/08/11 02:13:22;;;;;;;78.77;32.27;;;;;;;;;;5098424;28;20431;-55
2021/08/11 02:15:50;;;;;;;80.80;31.47;;;;;;;;;;5098905;28;20872;-54
2021/08/11 02:18:17;;;;;;;73.80;30.63;;;;;;;;;;5098526;28;20518;-56
2021/08/11 02:21:10;;;;;;;62.13;29.30;;;;;;;;;;5098605;28;20456;-57
2021/08/11 02:23:39;;;;;;;63.47;28.43;;;;;;;;;;5098116;28;20499;-53
2021/08/11 02:26:11;;;;;;;59.60;27.47;;;;;;;;;;5098739;28;20454;-54
2021/08/11 02:28:46;;;;;;;63.47;30.07;;;;;;;;;;5099159;28;20471;-58
2021/08/11 02:31:17;;;;;;;66.07;30.80;;;;;;;;;;5098267;28;20807;-58
2021/08/11 02:33:47;;;;;;;61.30;29.67;;;;;;;;;;5098014;28;20496;-57
2021/08/11 02:36:34;;;;;;;69.63;31.60;;;;;;;;;;5098164;28;20459;-51
2021/08/11 02:39:10;;;;;;;70.10;29.27;;;;;;;;;;5097812;28;20448;-54
2021/08/11 02:41:38;;;;;;;67.73;29.30;;;;;;;;;;5097831;28;20465;-56
2021/08/11 02:44:08;;;;;;;72.37;33.33;;;;;;;;;;5097630;28;20805;-54
2021/08/11 02:46:40;;;;;;;74.13;32.17;;;;;;;;;;5098379;28;20458;-55
2021/08/11 02:49:11;;;;;;;74.77;32.57;;;;;;;;;;5098101;28;20753;-53
2021/08/11 02:51:38;;;;;;;80.63;34.23;;;;;;;;;;5098609;28;20443;-55
2021/08/11 02:54:09;;;;;;;71.40;32.60;;;;;;;;;;5098010;28;20459;-51
2021/08/11 02:56:36;;;;;;;64.50;32.27;;;;;;;;;;5098043;28;20458;-56
2021/08/11 02:59:04;;;;;;;72.37;34.13;;;;;;;;;;5098437;28;20455;-56
2021/08/11 03:01:31;;;;;;;79.57;34.00;;;;;;;;;;5098169;28;20432;-54
2021/08/11 03:04:04;;;;;;;74.07;34.00;;;;;;;;;;5097873;28;20475;-51
2021/08/11 03:06:31;;;;;;;65.80;32.20;;;;;;;;;;5097904;28;20459;-55
2021/08/11 03:08:59;;;;;;;63.47;30.60;;;;;;;;;;5097236;28;20489;-54
2021/08/11 03:11:29;;;;;;;60.10;28.97;;;;;;;;;;5097498;28;20448;-57
2021/08/11 03:13:57;;;;;;;60.17;28.67;;;;;;;;;;5098327;28;20539;-58
2021/08/11 03:16:26;;;;;;;46.63;25.70;;;;;;;;;;5097627;28;20427;-49
2021/08/11 03:18:54;;;;;;;48.93;25.00;;;;;;;;;;5097608;28;20436;-55
2021/08/11 03:21:21;;;;;;;51.00;26.13;;;;;;;;;;5085620;28;20519;-59
2021/08/11 03:23:57;;;;;;;52.70;25.73;;;;;;;;;;5076849;28;20486;-55
2021/08/11 03:26:25;;;;;;;55.27;26.20;;;;;;;;;;5076961;28;20467;-55
2021/08/11 03:28:59;;;;;;;49.60;26.83;;;;;;;;;;5076814;28;20433;-55
2021/08/11 03:31:27;;;;;;;55.17;27.63;;;;;;;;;;5077893;28;20448;-56
2021/08/11 03:33:54;;;;;;;54.03;27.90;;;;;;;;;;5077154;28;20475;-56
2021/08/11 03:36:21;;;;;;;46.70;25.67;;;;;;;;;;5077532;28;20456;-54
2021/08/11 03:39:03;;;;;;;48.93;26.33;;;;;;;;;;5081821;28;20459;-54
2021/08/11 03:41:36;;;;;;;48.80;23.20;;;;;;;;;;5092087;28;20495;-53
2021/08/11 03:44:12;;;;;;;50.73;25.63;;;;;;;;;;5097636;28;20455;-55
2021/08/11 03:46:52;;;;;;;49.77;25.37;;;;;;;;;;5097148;28;20440;-55
2021/08/11 03:49:26;;;;;;;44.13;26.47;;;;;;;;;;5095223;28;20593;-55
2021/08/11 03:51:53;;;;;;;51.60;26.43;;;;;;;;;;5096201;28;20736;-54
2021/08/11 03:54:27;;;;;;;60.13;28.30;;;;;;;;;;5097265;28;20443;-55
2021/08/11 03:56:55;;;;;;;63.30;28.00;;;;;;;;;;5097113;28;20450;-57
2021/08/11 03:59:23;;;;;;;56.33;27.03;;;;;;;;;;5096438;28;20450;-55
2021/08/11 04:02:09;;;;;;;54.00;27.20;;;;;;;;;;5096684;28;20443;-55
2021/08/11 04:04:37;;;;;;;60.70;31.47;;;;;;;;;;5096872;28;20462;-55
2021/08/11 04:07:05;;;;;;;59.23;27.90;;;;;;;;;;5096726;28;20454;-56
2021/08/11 04:09:34;;;;;;;63.37;26.40;;;;;;;;;;5096311;28;20481;-54
2021/08/11 04:12:02;;;;;;;55.80;26.40;;;;;;;;;;5096753;28;20474;-54
2021/08/11 04:14:31;;;;;;;61.97;29.30;;;;;;;;;;5096541;28;20430;-52
2021/08/11 04:17:02;;;;;;;56.47;29.13;;;;;;;;;;5096323;28;20498;-60
2021/08/11 04:19:31;;;;;;;50.50;26.97;;;;;;;;;;5096836;28;20469;-56
2021/08/11 04:22:00;;;;;;;41.70;25.33;;;;;;;;;;5096579;28;20463;-52
2021/08/11 04:24:28;;;;;;;42.27;25.20;;;;;;;;;;5109895;28;20451;-55
2021/08/11 04:26:57;;;;;;;44.07;23.47;;;;;;;;;;5093682;28;20475;-55
2021/08/11 04:29:40;;;;;;;41.63;24.23;;;;;;;;;;5078915;28;20491;-58
2021/08/11 04:32:08;;;;;;;42.50;25.47;;;;;;;;;;5076675;28;20448;-56
2021/08/11 04:34:36;;;;;;;50.83;24.87;;;;;;;;;;5075747;28;20456;-52
2021/08/11 04:37:05;;;;;;;41.30;24.73;;;;;;;;;;5076116;28;20446;-56
2021/08/11 04:39:33;;;;;;;54.37;25.27;;;;;;;;;;5085158;28;20451;-56
2021/08/11 04:42:11;;;;;;;44.57;24.40;;;;;;;;;;5095496;28;20447;-59
2021/08/11 04:44:39;;;;;;;49.50;26.00;;;;;;;;;;5096081;28;20453;-51
2021/08/11 04:47:07;;;;;;;44.77;25.27;;;;;;;;;;5096707;28;20455;-57
2021/08/11 04:52:38;;;;;;;41.47;24.63;;;;;;;;;;5075743;28;20417;-53
2021/08/11 04:55:05;;;;;;;49.03;26.17;;;;;;;;;;5075743;28;20459;-58
2021/08/11 04:57:33;;;;;;;47.97;26.30;;;;;;;;;;5078816;28;20468;-54
2021/08/11 05:00:01;;;;;;;49.37;27.00;;;;;;;;;;5095698;28;20435;-56
2021/08/11 05:02:43;;;;;;;30.00;19.40;;;;;;;;;;5076643;28;20460;-57
2021/08/11 05:05:11;;;;;;;28.00;18.37;;;;;;;;;;5076116;28;20463;-52
2021/08/11 05:07:39;;;;;;;23.63;16.37;;;;;;;;;;5075681;28;20460;-53
2021/08/11 05:10:28;;;;;;;24.97;16.93;;;;;;;;;;5075510;28;20492;-57
2021/08/11 05:12:56;;;;;;;24.53;17.10;;;;;;;;;;5076089;28;20456;-56
2021/08/11 05:15:24;;;;;;;29.60;17.67;;;;;;;;;;5075700;28;20448;-56
2021/08/11 05:17:53;;;;;;;27.17;18.17;;;;;;;;;;5075928;28;20456;-59
2021/08/11 05:20:21;;;;;;;34.47;17.63;;;;;;;;;;5075416;28;20471;-53
2021/08/11 05:22:49;;;;;;;25.97;17.13;;;;;;;;;;5075526;28;20467;-58
2021/08/11 05:25:19;;;;;;;24.73;16.67;;;;;;;;;;5075888;28;20470;-55
2021/08/11 05:27:51;;;;;;;23.30;17.40;;;;;;;;;;5074591;28;20471;-55
2021/08/11 05:30:18;;;;;;;21.53;15.73;;;;;;;;;;5075444;28;20488;-58
2021/08/11 05:33:08;;;;;;;26.70;18.00;;;;;;;;;;5075382;28;20424;-56
2021/08/11 05:35:37;;;;;;;23.60;14.90;;;;;;;;;;5075386;28;20456;-56
2021/08/11 05:38:08;;;;;;;21.53;15.40;;;;;;;;;;5075168;28;20831;-59
2021/08/11 05:40:36;;;;;;;20.00;15.27;;;;;;;;;;5075657;28;20451;-58
2021/08/11 05:43:04;;;;;;;24.10;15.10;;;;;;;;;;5084455;28;20438;-57
2021/08/11 05:45:31;;;;;;;17.67;14.63;;;;;;;;;;5095940;28;20440;-53
2021/08/11 05:47:58;;;;;;;19.40;14.00;;;;;;;;;;5092116;28;20464;-55
2021/08/11 05:50:25;;;;;;;22.50;17.40;;;;;;;;;;5101172;28;20536;-61
2021/08/11 05:52:55;;;;;;;19.50;15.27;;;;;;;;;;5115936;28;20462;-60
2021/08/11 05:55:37;;;;;;;16.20;14.57;;;;;;;;;;5116046;28;20434;-58
2021/08/11 05:58:04;;;;;;;21.43;16.57;;;;;;;;;;5115538;28;20455;-57
2021/08/11 06:00:34;;;;;;;19.57;16.90;;;;;;;;;;5113008;28;20459;-62
2021/08/11 06:06:07;;;;;;;22.60;18.97;;;;;;;;;;5095132;28;20407;-58
2021/08/11 06:08:35;;;;;;;22.83;16.47;;;;;;;;;;5094620;28;20470;-53
2021/08/11 06:11:03;;;;;;;21.93;15.30;;;;;;;;;;5094900;28;20554;-59
2021/08/11 06:13:30;;;;;;;16.80;12.70;;;;;;;;;;5094669;28;20462;-60
2021/08/11 06:16:00;;;;;;;18.00;15.50;;;;;;;;;;5098709;28;20459;-60
2021/08/11 06:18:29;;;;;;;16.43;14.37;;;;;;;;;;5125200;28;20459;-56
2021/08/11 06:20:56;;;;;;;16.13;13.90;;;;;;;;;;5118989;28;20447;-57
2021/08/11 06:23:26;;;;;;;15.73;13.97;;;;;;;;;;5120373;28;20459;-61
2021/08/11 06:25:54;;;;;;;17.03;15.23;;;;;;;;;;5136335;28;20461;-56
2021/08/11 06:28:26;;;;;;;16.67;14.87;;;;;;;;;;5138486;28;20438;-53
2021/08/11 06:30:53;;;;;;;18.53;15.07;;;;;;;;;;5132055;28;20477;-60
2021/08/11 06:33:34;;;;;;;21.00;15.53;;;;;;;;;;5097536;28;20537;-57
2021/08/11 06:36:20;;;;;;;18.43;15.90;;;;;;;;;;5077808;28;20429;-56
2021/08/11 06:38:48;;;;;;;19.13;14.00;;;;;;;;;;5078481;28;20437;-56
2021/08/11 06:41:17;;;;;;;18.80;14.87;;;;;;;;;;5078622;28;20440;-58
2021/08/11 06:43:44;;;;;;;21.70;18.37;;;;;;;;;;5096846;28;20477;-57
2021/08/11 06:46:14;;;;;;;19.57;17.57;;;;;;;;;;5078951;28;20453;-59
2021/08/11 06:48:42;;;;;;;19.60;16.07;;;;;;;;;;5077819;28;20444;-56
2021/08/11 06:51:40;;;;;;;22.17;16.67;;;;;;;;;;5083346;28;20468;-53
2021/08/11 06:54:10;;;;;;;17.40;15.53;;;;;;;;;;5097959;28;20478;-57
2021/08/11 06:56:41;;;;;;;17.27;15.57;;;;;;;;;;5093045;28;20452;-58
2021/08/11 06:59:10;;;;;;;16.73;14.00;;;;;;;;;;5077696;28;20533;-57
2021/08/11 07:01:37;;;;;;;18.43;15.27;;;;;;;;;;5077838;28;20500;-54
2021/08/11 07:04:05;;;;;;;17.73;14.47;;;;;;;;;;5077530;28;20519;-60
2021/08/11 07:06:51;;;;;;;16.90;14.10;;;;;;;;;;5077185;28;20433;-58
2021/08/11 07:09:22;;;;;;;16.20;14.50;;;;;;;;;;5078213;28;20456;-57
2021/08/11 07:11:52;;;;;;;13.43;12.13;;;;;;;;;;5085477;28;20476;-58
2021/08/11 07:14:20;;;;;;;16.70;13.70;;;;;;;;;;5098309;28;20448;-55
2021/08/11 07:16:47;;;;;;;14.43;12.50;;;;;;;;;;5097722;28;20802;-57
2021/08/11 07:19:15;;;;;;;20.33;14.63;;;;;;;;;;5098135;28;20443;-50
2021/08/11 07:22:11;;;;;;;15.83;14.17;;;;;;;;;;5096753;28;20448;-59
2021/08/11 07:24:38;;;;;;;16.57;12.33;;;;;;;;;;5096990;28;20444;-56
2021/08/11 07:27:07;;;;;;;17.13;13.23;;;;;;;;;;5097105;28;20416;-53
2021/08/11 07:32:45;;;;;;;13.87;12.50;;;;;;;;;;5096197;28;20490;-54
2021/08/11 07:35:18;;;;;;;14.70;13.10;;;;;;;;;;5091050;28;20448;-58
2021/08/11 07:37:58;;;;;;;11.00;9.90;;;;;;;;;;5097192;28;20474;-58
2021/08/11 07:40:26;;;;;;;16.20;11.33;;;;;;;;;;5110347;28;20486;-54
2021/08/11 07:42:56;;;;;;;12.03;10.93;;;;;;;;;;5116738;28;20443;-58
2021/08/11 07:45:25;;;;;;;12.73;10.87;;;;;;;;;;5097580;28;20476;-58
2021/08/11 07:47:54;;;;;;;10.90;9.23;;;;;;;;;;5096982;28;20472;-54
2021/08/11 07:50:28;;;;;;;14.77;10.20;;;;;;;;;;5096833;28;20479;-59
2021/08/11 07:52:57;;;;;;;13.70;8.87;;;;;;;;;;5105317;28;20514;-55
2021/08/11 07:55:25;;;;;;;9.80;8.80;;;;;;;;;;5117316;28;20462;-59
2021/08/11 07:57:53;;;;;;;10.70;9.60;;;;;;;;;;5117120;28;20477;-54
2021/08/11 08:00:23;;;;;;;10.50;9.30;;;;;;;;;;5117006;28;20455;-58
2021/08/11 08:08:19;;;;;;;7.93;7.00;;;;;;;;;;5101260;28;20551;-57
2021/08/11 08:10:49;;;;;;;9.00;8.10;;;;;;;;;;5090818;28;20228;-56
2021/08/11 08:16:22;;;;;;;8.50;6.50;;;;;;;;;;5097960;28;20410;-59
2021/08/11 08:18:52;;;;;;;13.43;7.90;;;;;;;;;;5116141;28;20461;-54
2021/08/11 08:21:48;;;;;;;9.43;8.30;;;;;;;;;;5116797;28;20489;-56
2021/08/11 08:24:16;;;;;;;11.40;9.47;;;;;;;;;;5116383;28;20443;-54
2021/08/11 08:26:44;;;;;;;9.27;7.17;;;;;;;;;;5115876;28;20498;-48
2021/08/11 08:29:25;;;;;;;10.87;9.77;;;;;;;;;;5116557;28;20498;-55
2021/08/11 08:31:56;;;;;;;11.33;9.63;;;;;;;;;;5098397;28;20471;-52
2021/08/11 08:34:27;;;;;;;9.93;8.33;;;;;;;;;;5090313;28;20459;-53
2021/08/11 08:37:29;;;;;;;9.77;8.37;;;;;;;;;;5096121;28;20483;-50
2021/08/11 08:39:56;;;;;;;9.63;8.50;;;;;;;;;;5095814;28;20456;-57
2021/08/11 08:42:24;;;;;;;8.83;7.77;;;;;;;;;;5096273;28;20436;-57
2021/08/11 08:44:52;;;;;;;7.27;5.80;;;;;;;;;;5096389;28;20448;-58
2021/08/11 08:47:22;;;;;;;10.67;7.40;;;;;;;;;;5095130;28;20440;-56
2021/08/11 08:50:01;;;;;;;10.43;8.70;;;;;;;;;;5096027;28;20499;-60
2021/08/11 08:52:29;;;;;;;11.43;9.40;;;;;;;;;;5094987;28;20495;-55
2021/08/11 08:54:59;;;;;;;13.93;9.00;;;;;;;;;;5096458;28;20443;-58
2021/08/11 08:57:29;;;;;;;10.50;9.00;;;;;;;;;;5075558;28;20472;-58
2021/08/11 08:59:57;;;;;;;8.43;7.33;;;;;;;;;;5075471;28;20906;-58
2021/08/11 09:02:27;;;;;;;7.90;6.20;;;;;;;;;;5075619;28;20491;-58
2021/08/11 09:05:05;;;;;;;10.30;7.40;;;;;;;;;;5075941;28;20475;-56
2021/08/11 09:07:32;;;;;;;9.20;6.30;;;;;;;;;;5076958;28;20453;-56
2021/08/11 09:10:12;;;;;;;11.93;6.00;;;;;;;;;;5077086;28;20499;-56
2021/08/11 09:12:50;;;;;;;13.23;7.40;;;;;;;;;;5076647;28;20499;-58
2021/08/11 09:15:31;;;;;;;9.30;7.23;;;;;;;;;;5075908;28;20460;-53
2021/08/11 09:18:12;;;;;;;8.83;6.43;;;;;;;;;;5093093;28;20536;-51
2021/08/11 09:20:49;;;;;;;8.00;6.90;;;;;;;;;;5096231;28;20444;-55
2021/08/11 09:23:17;;;;;;;6.60;5.70;;;;;;;;;;5079838;28;20439;-52
2021/08/11 09:26:05;;;;;;;9.80;6.00;;;;;;;;;;5096695;28;20455;-57
2021/08/11 09:28:33;;;;;;;7.33;5.03;;;;;;;;;;5096954;28;20522;-56
2021/08/11 09:31:01;;;;;;;7.00;5.83;;;;;;;;;;5096270;28;20464;-56
2021/08/11 09:36:37;;;;;;;8.43;7.37;;;;;;;;;;5096154;28;20430;-49
2021/08/11 09:39:26;;;;;;;14.63;5.30;;;;;;;;;;5073378;28;20829;-52
2021/08/11 09:42:05;;;;;;;6.07;5.10;;;;;;;;;;5078809;28;20448;-56
2021/08/11 09:44:39;;;;;;;7.53;5.37;;;;;;;;;;5078318;28;20452;-59
2021/08/11 09:50:11;;;;;;;7.70;5.70;;;;;;;;;;5077608;28;20408;-53
2021/08/11 09:52:48;;;;;;;7.33;4.80;;;;;;;;;;5085599;28;20476;-51
2021/08/11 09:55:23;;;;;;;6.77;5.00;;;;;;;;;;5098637;28;20697;-55
2021/08/11 09:57:51;;;;;;;6.00;4.67;;;;;;;;;;5098867;28;20508;-57
2021/08/11 10:00:19;;;;;;;8.33;5.20;;;;;;;;;;5094827;28;20432;-54
2021/08/11 10:03:04;;;;;;;9.63;4.97;;;;;;;;;;5098952;28;20507;-56
2021/08/11 10:05:35;;;;;;;8.63;4.10;;;;;;;;;;5098617;28;20463;-52
2021/08/11 10:08:03;;;;;;;6.97;4.07;;;;;;;;;;5098792;28;20474;-55
2021/08/11 10:11:04;;;;;;;8.50;5.33;;;;;;;;;;5098791;28;20458;-58
2021/08/11 10:13:56;;;;;;;8.20;4.80;;;;;;;;;;5097000;28;20556;-55
2021/08/11 10:16:31;;;;;;;8.40;5.00;;;;;;;;;;5095161;28;20460;-52
2021/08/11 10:19:01;;;;;;;8.23;4.80;;;;;;;;;;5080235;28;20441;-58
2021/08/11 10:21:29;;;;;;;7.90;4.57;;;;;;;;;;5078714;28;20453;-58
2021/08/11 10:27:08;;;;;;;7.63;5.53;;;;;;;;;;5088603;28;20483;-58
2021/08/11 10:29:43;;;;;;;6.10;4.47;;;;;;;;;;5081124;28;20462;-54
2021/08/11 10:32:21;;;;;;;7.40;4.80;;;;;;;;;;5098109;28;20521;-60
2021/08/11 10:34:49;;;;;;;8.23;5.53;;;;;;;;;;5098297;28;20448;-54
2021/08/11 10:37:16;;;;;;;6.03;4.43;;;;;;;;;;5097935;28;20431;-57
2021/08/11 10:40:10;;;;;;;7.20;4.77;;;;;;;;;;5097880;28;20456;-53
2021/08/11 10:42:40;;;;;;;7.40;4.90;;;;;;;;;;5097511;28;20452;-56
2021/08/11 10:45:10;;;;;;;7.90;4.97;;;;;;;;;;5097949;28;20440;-54
2021/08/11 10:47:54;;;;;;;6.57;4.10;;;;;;;;;;5091739;28;20481;-61
2021/08/11 10:50:34;;;;;;;8.93;5.90;;;;;;;;;;5116510;28;20586;-61
2021/08/11 10:53:09;;;;;;;6.63;5.43;;;;;;;;;;5122905;28;20498;-59
2021/08/11 10:55:44;;;;;;;8.20;4.50;;;;;;;;;;5118116;28;20520;-56
2021/08/11 10:58:48;;;;;;;7.70;5.77;;;;;;;;;;5117900;28;20462;-57
2021/08/11 11:01:47;;;;;;;8.13;5.97;;;;;;;;;;5117014;28;20481;-56
2021/08/11 11:04:41;;;;;;;16.20;9.60;;;;;;;;;;5101875;28;20456;-57
2021/08/11 11:07:21;;;;;;;9.40;5.70;;;;;;;;;;5098076;28;20468;-57
2021/08/11 11:09:50;;;;;;;9.90;6.47;;;;;;;;;;5097280;28;20455;-57
2021/08/11 11:12:37;;;;;;;6.53;4.97;;;;;;;;;;5097501;28;20522;-59
2021/08/11 11:15:06;;;;;;;8.40;5.13;;;;;;;;;;5096670;28;20626;-53
2021/08/11 11:17:35;;;;;;;7.20;4.37;;;;;;;;;;5097244;28;20452;-61
2021/08/11 11:20:32;;;;;;;11.47;5.50;;;;;;;;;;5097075;28;20514;-55
2021/08/11 11:30:59;;;;;;;5.60;4.10;;;;;;;;;;5094233;28;20225;-58
2021/08/11 11:33:34;;;;;;;4.73;3.70;;;;;;;;;;5108478;28;20201;-56
2021/08/11 11:39:07;;;;;;;7.30;4.40;;;;;;;;;;5116575;28;20389;-59
2021/08/11 11:41:35;;;;;;;7.10;4.10;;;;;;;;;;5114732;28;20446;-59
2021/08/11 11:44:26;;;;;;;7.47;4.70;;;;;;;;;;5115711;28;20490;-57
2021/08/11 11:47:31;;;;;;;6.57;4.20;;;;;;;;;;5076179;28;20487;-54
2021/08/11 11:50:13;;;;;;;7.57;4.67;;;;;;;;;;5095759;28;20440;-56
2021/08/11 11:52:48;;;;;;;5.27;4.17;;;;;;;;;;5094417;28;20547;-56
2021/08/11 11:55:31;;;;;;;7.17;4.40;;;;;;;;;;5095017;28;20481;-58
2021/08/11 11:58:09;;;;;;;9.00;4.77;;;;;;;;;;5088936;28;20464;-58
2021/08/11 12:03:58;;;;;;;7.13;4.90;;;;;;;;;;5096010;28;20488;-58
2021/08/11 12:06:40;;;;;;;8.27;4.60;;;;;;;;;;5111317;28;20448;-60
2021/08/11 12:09:09;;;;;;;9.23;4.60;;;;;;;;;;5113019;28;20455;-56
2021/08/11 12:11:36;;;;;;;6.47;4.23;;;;;;;;;;5112071;28;20536;-59
2021/08/11 12:14:04;;;;;;;8.77;4.60;;;;;;;;;;5112113;28;20485;-56
2021/08/11 12:16:36;;;;;;;8.80;5.03;;;;;;;;;;5093838;28;20507;-54
2021/08/11 12:19:15;;;;;;;7.00;4.77;;;;;;;;;;5092831;28;20508;-57
2021/08/11 12:21:44;;;;;;;5.50;4.00;;;;;;;;;;5075234;28;20440;-57
2021/08/11 12:24:25;;;;;;;7.47;3.17;;;;;;;;;;5075471;28;20463;-58
2021/08/11 12:26:58;;;;;;;14.70;10.97;;;;;;;;;;5074518;28;20451;-59
2021/08/11 12:29:27;;;;;;;6.43;4.00;;;;;;;;;;5074008;28;20660;-57
2021/08/11 12:31:55;;;;;;;12.00;4.30;;;;;;;;;;5073266;28;20549;-57
2021/08/11 12:34:36;;;;;;;7.13;4.27;;;;;;;;;;5073636;28;20457;-55
2021/08/11 12:37:05;;;;;;;8.60;4.40;;;;;;;;;;5074308;28;20461;-54
2021/08/11 12:39:37;;;;;;;6.33;4.07;;;;;;;;;;5081144;28;20463;-57
2021/08/11 12:42:04;;;;;;;5.47;3.83;;;;;;;;;;5093891;28;20452;-56
2021/08/11 12:44:33;;;;;;;6.23;4.20;;;;;;;;;;5093697;28;20548;-60
2021/08/11 12:47:02;;;;;;;6.97;4.43;;;;;;;;;;5093485;28;20452;-58
2021/08/11 12:49:42;;;;;;;6.40;4.40;;;;;;;;;;5080110;28;20537;-58
2021/08/11 12:52:16;;;;;;;6.63;4.30;;;;;;;;;;5072200;28;20484;-58
2021/08/11 12:55:10;;;;;;;10.77;4.90;;;;;;;;;;5072477;28;20467;-57
2021/08/11 12:57:54;;;;;;;5.10;3.93;;;;;;;;;;5091116;28;20467;-58
2021/08/11 13:00:54;;;;;;;5.80;4.13;;;;;;;;;;5094448;28;20487;-59
2021/08/11 13:03:22;;;;;;;5.40;3.40;;;;;;;;;;5093993;28;20474;-58
2021/08/11 13:05:50;;;;;;;5.67;3.90;;;;;;;;;;5093091;28;20462;-57
2021/08/11 13:08:39;;;;;;;6.37;4.07;;;;;;;;;;5093595;28;20467;-55
2021/08/11 13:11:06;;;;;;;6.03;4.10;;;;;;;;;;5084144;28;20547;-58
2021/08/11 13:13:35;;;;;;;10.03;4.70;;;;;;;;;;5091958;28;20492;-55
2021/08/11 13:16:09;;;;;;;5.60;4.50;;;;;;;;;;5090786;28;20459;-56
2021/08/11 13:18:36;;;;;;;9.23;5.80;;;;;;;;;;5092521;28;20448;-58
2021/08/11 13:21:06;;;;;;;6.40;4.40;;;;;;;;;;5093223;28;20492;-53
2021/08/11 13:23:53;;;;;;;6.90;4.20;;;;;;;;;;5094771;28;20534;-53
2021/08/11 13:26:21;;;;;;;4.77;3.27;;;;;;;;;;5096564;28;20481;-56
2021/08/11 13:29:00;;;;;;;9.70;5.80;;;;;;;;;;5098527;28;20511;-60
2021/08/11 13:31:27;;;;;;;8.97;5.80;;;;;;;;;;5113679;28;20517;-54
2021/08/11 13:33:55;;;;;;;8.93;5.57;;;;;;;;;;5119438;28;20486;-58
2021/08/11 13:36:38;;;;;;;9.30;4.10;;;;;;;;;;5118959;28;20501;-53
2021/08/11 13:39:08;;;;;;;7.90;4.57;;;;;;;;;;5119607;28;20514;-58
2021/08/11 13:41:54;;;;;;;8.30;4.73;;;;;;;;;;5119342;28;20416;-56
2021/08/11 13:44:24;;;;;;;6.37;4.03;;;;;;;;;;5120001;28;20462;-56
2021/08/11 13:46:52;;;;;;;7.77;4.90;;;;;;;;;;5119701;28;20477;-56
2021/08/11 13:49:32;;;;;;;9.87;6.13;;;;;;;;;;5119226;28;20474;-56
2021/08/11 13:52:12;;;;;;;7.63;4.80;;;;;;;;;;5097496;28;20456;-56
2021/08/11 13:54:43;;;;;;;6.17;3.73;;;;;;;;;;5098147;28;20446;-57
2021/08/11 13:57:40;;;;;;;4.90;3.60;;;;;;;;;;5136997;28;20450;-57
2021/08/11 14:00:13;;;;;;;8.43;5.40;;;;;;;;;;5139567;28;20422;-55
2021/08/11 14:02:42;;;;;;;5.60;4.00;;;;;;;;;;5136422;28;21947;-56
2021/08/11 14:05:10;;;;;;;7.00;6.10;;;;;;;;;;5117790;28;20456;-55
2021/08/11 14:07:38;;;;;;;9.00;4.07;;;;;;;;;;5117866;28;20459;-54
2021/08/11 14:10:06;;;;;;;6.90;3.60;;;;;;;;;;5117339;28;20491;-57
2021/08/11 14:13:07;;;;;;;6.27;4.37;;;;;;;;;;5112450;28;20499;-54
2021/08/11 14:15:52;;;;;;;7.87;5.33;;;;;;;;;;5102630;28;20465;-60
2021/08/11 14:18:35;;;;;;;6.50;4.37;;;;;;;;;;5095900;28;20490;-57
2021/08/11 14:21:04;;;;;;;5.50;4.00;;;;;;;;;;5095787;28;20514;-60
2021/08/11 14:23:32;;;;;;;6.57;4.40;;;;;;;;;;5110702;28;20535;-52
2021/08/11 14:26:11;;;;;;;4.53;3.10;;;;;;;;;;5095292;28;20448;-50
2021/08/11 14:28:38;;;;;;;6.30;4.60;;;;;;;;;;5093985;28;20459;-59
2021/08/11 14:31:07;;;;;;;6.87;4.80;;;;;;;;;;5102984;28;20444;-60
2021/08/11 14:34:18;;;;;;;7.20;5.27;;;;;;;;;;5095411;28;20492;-59
2021/08/11 14:36:54;;;;;;;7.43;4.70;;;;;;;;;;5112926;28;20469;-55
2021/08/11 14:41:54;;;;;;;6.00;3.80;;;;;;;;;;5054823;28;20470;-58
2021/08/11 14:44:22;;;;;;;7.83;5.63;;;;;;;;;;5055099;28;20442;-58
2021/08/11 14:47:11;;;;;;;7.90;5.60;;;;;;;;;;5054755;28;20450;-60
2021/08/11 14:49:39;;;;;;;6.60;5.00;;;;;;;;;;5054907;28;20465;-52
2021/08/11 14:52:07;;;;;;;6.60;4.83;;;;;;;;;;5054746;28;20521;-57
2021/08/11 14:54:36;;;;;;;7.43;5.20;;;;;;;;;;5054323;28;20493;-57
2021/08/11 15:00:13;;;;;;;6.47;4.50;;;;;;;;;;5007467;28;20442;-53
2021/08/11 15:02:55;;;;;;;5.43;4.30;;;;;;;;;;5025988;28;20527;-57
2021/08/11 15:05:22;;;;;;;6.90;4.40;;;;;;;;;;5031008;28;20513;-53
2021/08/11 15:08:19;;;;;;;5.70;4.00;;;;;;;;;;5032364;28;20447;-55
2021/08/11 15:10:52;;;;;;;5.30;4.10;;;;;;;;;;5034574;28;20462;-58
2021/08/11 15:13:19;;;;;;;7.00;4.50;;;;;;;;;;5034450;28;20431;-58
2021/08/11 15:15:47;;;;;;;7.60;5.97;;;;;;;;;;5034881;28;20463;-61
2021/08/11 15:18:16;;;;;;;7.17;4.83;;;;;;;;;;5033966;28;20459;-60
2021/08/11 15:20:43;;;;;;;7.10;4.50;;;;;;;;;;5034297;28;20462;-59
2021/08/11 15:23:18;;;;;;;6.90;4.70;;;;;;;;;;5033672;28;20494;-57
2021/08/11 15:25:47;;;;;;;8.80;6.73;;;;;;;;;;5034189;28;20950;-58
2021/08/11 15:28:16;;;;;;;5.90;4.33;;;;;;;;;;5034470;28;20455;-61
2021/08/11 15:31:03;;;;;;;6.70;5.20;;;;;;;;;;5034610;28;20467;-60
2021/08/11 15:33:46;;;;;;;7.13;4.30;;;;;;;;;;5035120;28;20455;-62
2021/08/11 15:36:20;;;;;;;10.10;5.07;;;;;;;;;;5033918;28;20459;-59
2021/08/11 15:38:48;;;;;;;6.60;4.70;;;;;;;;;;5032643;28;20457;-58
2021/08/11 15:41:16;;;;;;;5.70;4.30;;;;;;;;;;5033788;28;20458;-54
2021/08/11 15:44:00;;;;;;;7.23;5.60;;;;;;;;;;5033054;28;20535;-61
2021/08/11 15:46:28;;;;;;;17.43;7.33;;;;;;;;;;5013144;28;20470;-59
2021/08/11 15:48:56;;;;;;;6.07;4.07;;;;;;;;;;5029608;28;20459;-57